x

Diepholz (10321) Weather Station

12:20pm - Tue 31st Mar 2015 All times are CEST. 2 hours from GMT.

  • Wind
    38mph, 56mph gusts
  • Air Temp 48°f
  • Sea Pressure 989mb
  • Diepholz
  • Diepholz

More Historic Weather Station data

Upgrade to MSW Pro to gain access to the past 30 days of data for over 8000 Wavebouys and Weather Stations around the globe.

Join Pro

Comparision Forecast

View Surf forecast
   
Tue 03/31 12:20pm 38 56 mph 989mb 48f
11:20am 37 56 mph 988mb 48f
10:20am 33 56 mph 987mb 48f
9:20am 29 45 mph 986mb 48f
8:20am 27 39 mph 985mb 48f
7:20am 30 43 mph 984mb 48f
7:13am 31 43 mph 984mb 48f
7:08am 31 48 mph 984mb 48f
6:20am 18 31 mph 984mb 45f
Mon 03/30 2:20pm 17
mph
1001mb 45f
1:20pm 16 29 mph 1000mb 43f
1:05pm 21 35 mph 1000mb 45f
12:20pm 18 33 mph 999mb 43f
12:02pm 23 37 mph 998mb 45f
11:32am 24 39 mph 997mb 45f
11:20am 22 35 mph 997mb 46f
10:20am 27 40 mph 996mb 45f
9:20am 24 37 mph 995mb 43f
9:00am 24 40 mph 994mb 43f
8:20am 24 39 mph 994mb 43f
7:20am 18 32 mph 993mb 41f
6:47am 15
mph
993mb 39f
6:20am 20 32 mph 992mb 41f